Even Keel — WDF2552 — position and weather

sailwx.info

Track history (hours):
 
Tides and Currents Weather Stations Pressure Air Temp Water Temp Dewpoint Dewpoint Depression Visibility Wind Speed Wind Dir Waves Ship Positions

Even Keel

Owner: Meloy, William M, Livermore, CA. More information available from US FCC via Universal Licensing System and Coast Guard Vessel Documentation Center.

Last reported at 2017-Nov-26 20:53 UTC. Time now 2017-Dec-12 02:56 UTC.
Position N 37°47' W 122°16'.
Warning: this ship's position is 15 days out of date.

Length 10 m.

Type: Sailing vessel. MMSI: 367429210.

Date/timePositionNaut miles runAvg speedWind from/ knotsBaromVisibWave heightAir tempDewpointWater temp
2017-Nov-26 20:53N 37°47' W 122°16'2 5.2
2017-Nov-26 20:30N 37°48' W 122°18'2 4.3
2017-Nov-26 20:00N 37°48' W 122°21'2 3.9
2017-Nov-26 19:30N 37°50' W 122°22'2 3.4
2017-Nov-26 18:59N 37°51' W 122°24'2 3.3
2017-Nov-26 18:30N 37°52' W 122°25'1 0.0
2017-Nov-25 23:27N 37°52' W 122°26'0 0.5
2017-Nov-25 23:00N 37°52' W 122°27'2 3.9
2017-Nov-25 22:28N 37°51' W 122°25'2 4.2
2017-Nov-25 21:59N 37°50' W 122°22'2 4.2
2017-Nov-25 21:31N 37°48' W 122°21'3 5.1
2017-Nov-25 21:00N 37°48' W 122°18'  
Track history (hours):
 
Tides and Currents Weather Stations Pressure Air Temp Water Temp Dewpoint Dewpoint Depression Visibility Wind Speed Wind Dir Waves Ship Positions

Even Keel

Owner: Meloy, William M, Livermore, CA. More information available from US FCC via Universal Licensing System and Coast Guard Vessel Documentation Center.

Last reported at 2017-Nov-26 20:53 UTC. Time now 2017-Dec-12 02:56 UTC.
Position N 37°47' W 122°16'.
Warning: this ship's position is 15 days out of date.

Length 10 m.

Type: Sailing vessel. MMSI: 367429210.

Date/timePositionNaut miles runAvg speedWind from/ knotsBaromVisibWave heightAir tempDewpointWater temp
2017-Nov-26 20:53N 37°47' W 122°16'2 5.2
2017-Nov-26 20:30N 37°48' W 122°18'2 4.3
2017-Nov-26 20:00N 37°48' W 122°21'2 3.9
2017-Nov-26 19:30N 37°50' W 122°22'2 3.4
2017-Nov-26 18:59N 37°51' W 122°24'2 3.3
2017-Nov-26 18:30N 37°52' W 122°25'1 0.0
2017-Nov-25 23:27N 37°52' W 122°26'0 0.5
2017-Nov-25 23:00N 37°52' W 122°27'2 3.9
2017-Nov-25 22:28N 37°51' W 122°25'2 4.2
2017-Nov-25 21:59N 37°50' W 122°22'2 4.2
2017-Nov-25 21:31N 37°48' W 122°21'3 5.1
2017-Nov-25 21:00N 37°48' W 122°18'  

Dump ship's entire track history